createdAt,value
2023-04-16T00:01:36.845Z,21.00
2023-04-16T00:04:03.795Z,22.27
2023-04-16T00:06:30.648Z,22.60
2023-04-16T00:08:57.189Z,22.87
2023-04-16T00:11:24.073Z,22.30
2023-04-16T00:13:50.678Z,24.27
2023-04-16T00:16:17.371Z,21.13
2023-04-16T00:18:44.033Z,22.43
2023-04-16T00:21:10.587Z,22.30
2023-04-16T00:23:37.934Z,23.27
2023-04-16T00:26:04.868Z,23.27
2023-04-16T00:28:31.422Z,21.00
2023-04-16T00:30:58.309Z,21.50
2023-04-16T00:33:25.009Z,20.93
2023-04-16T00:35:51.732Z,21.10
2023-04-16T00:38:18.405Z,18.73
2023-04-16T00:40:45.169Z,20.70
2023-04-16T00:43:11.601Z,21.70
2023-04-16T00:45:38.287Z,20.47
2023-04-16T00:48:05.487Z,21.23
2023-04-16T00:50:33.173Z,21.73
2023-04-16T00:53:00.444Z,20.77
2023-04-16T00:55:27.040Z,20.43
2023-04-16T00:57:53.779Z,20.30
2023-04-16T01:00:20.852Z,20.30
2023-04-16T01:02:47.669Z,24.87
2023-04-16T01:05:14.518Z,21.13
2023-04-16T01:07:41.007Z,23.50
2023-04-16T01:10:07.730Z,22.33
2023-04-16T01:12:34.285Z,24.70
2023-04-16T01:15:00.820Z,22.50
2023-04-16T01:17:27.426Z,23.30
2023-04-16T01:19:53.970Z,23.47
2023-04-16T01:22:20.750Z,23.53
2023-04-16T01:24:47.240Z,21.53
2023-04-16T01:27:13.785Z,21.77
2023-04-16T01:29:40.319Z,21.70
2023-04-16T01:32:07.273Z,21.50
2023-04-16T01:34:36.758Z,23.70
2023-04-16T01:37:03.889Z,21.70
2023-04-16T01:39:30.416Z,21.50
2023-04-16T01:41:57.797Z,25.17
2023-04-16T01:44:25.502Z,23.00
2023-04-16T01:46:52.222Z,22.20
2023-04-16T01:49:19.142Z,22.17
2023-04-16T01:51:45.780Z,21.27
2023-04-16T01:54:12.410Z,20.50
2023-04-16T01:56:39.581Z,20.60
2023-04-16T01:59:06.174Z,23.03
2023-04-16T02:01:38.238Z,24.50
2023-04-16T02:04:05.387Z,24.17
2023-04-16T02:06:32.141Z,25.53
2023-04-16T02:08:58.703Z,25.90
2023-04-16T02:11:26.316Z,26.30
2023-04-16T02:13:53.297Z,25.87
2023-04-16T02:16:20.402Z,28.60
2023-04-16T02:18:52.705Z,28.87
2023-04-16T02:21:21.437Z,27.87
2023-04-16T02:23:51.531Z,28.67
2023-04-16T02:26:21.508Z,26.90
2023-04-16T02:28:49.120Z,27.00
2023-04-16T02:31:19.331Z,26.27
2023-04-16T02:33:46.048Z,28.23
2023-04-16T02:36:12.871Z,25.27
2023-04-16T02:38:39.648Z,27.60
2023-04-16T02:41:06.690Z,27.40
2023-04-16T02:43:34.062Z,28.00
2023-04-16T02:46:01.801Z,27.13
2023-04-16T02:48:28.384Z,32.37
2023-04-16T02:50:54.956Z,31.50
2023-04-16T02:53:21.733Z,34.30
2023-04-16T02:55:52.840Z,32.27
2023-04-16T02:58:24.355Z,29.80
2023-04-16T03:00:51.695Z,33.27
2023-04-16T03:03:18.185Z,33.80
2023-04-16T03:05:44.781Z,32.70
2023-04-16T03:08:11.455Z,38.90
2023-04-16T03:10:38.010Z,34.20
2023-04-16T03:13:04.607Z,36.13
2023-04-16T03:15:31.437Z,35.93
2023-04-16T03:17:58.099Z,33.93
2023-04-16T03:20:24.962Z,38.23
2023-04-16T03:22:52.681Z,33.67
2023-04-16T03:25:19.504Z,35.30
2023-04-16T03:27:46.233Z,34.37
2023-04-16T03:30:14.073Z,35.30
2023-04-16T03:32:41.567Z,33.47
2023-04-16T03:35:08.951Z,35.23
2023-04-16T03:37:37.301Z,34.07
2023-04-16T03:40:06.293Z,34.57
2023-04-16T03:42:32.739Z,34.63
2023-04-16T03:44:59.496Z,31.97
2023-04-16T03:47:26.565Z,35.80
2023-04-16T03:49:56.716Z,35.13
2023-04-16T03:52:23.461Z,38.10
2023-04-16T03:54:50.842Z,33.87
2023-04-16T03:57:26.500Z,36.07
2023-04-16T03:59:56.982Z,40.17
2023-04-16T04:02:26.554Z,37.27
2023-04-16T04:04:53.266Z,39.50
2023-04-16T04:07:19.888Z,36.87
2023-04-16T04:09:46.378Z,40.57
2023-04-16T04:12:13.554Z,41.07
2023-04-16T04:14:41.793Z,44.93
2023-04-16T04:17:08.838Z,42.80
2023-04-16T04:19:35.320Z,42.60
2023-04-16T04:22:02.634Z,44.47
2023-04-16T04:24:29.479Z,44.20
2023-04-16T04:26:57.445Z,49.77
2023-04-16T04:29:24.044Z,46.43
2023-04-16T04:31:50.850Z,49.57
2023-04-16T04:34:17.456Z,52.37
2023-04-16T04:36:44.602Z,48.80
2023-04-16T04:39:13.147Z,50.30
2023-04-16T04:41:42.497Z,48.63
2023-04-16T04:44:09.041Z,51.17
2023-04-16T04:46:35.752Z,40.87
2023-04-16T04:49:02.319Z,52.30
2023-04-16T04:51:28.881Z,50.40
2023-04-16T04:53:55.619Z,53.30
2023-04-16T04:56:22.140Z,53.03
2023-04-16T04:58:49.956Z,50.87
2023-04-16T05:01:18.673Z,49.07
2023-04-16T05:03:45.379Z,48.97
2023-04-16T05:06:12.307Z,52.13
2023-04-16T05:08:38.816Z,49.50
2023-04-16T05:11:05.309Z,46.20
2023-04-16T05:13:31.862Z,43.37
2023-04-16T05:15:58.482Z,48.80
2023-04-16T05:18:25.083Z,50.70
2023-04-16T05:20:51.783Z,57.33
2023-04-16T05:23:18.324Z,47.20
2023-04-16T05:25:44.945Z,45.37
2023-04-16T05:28:11.423Z,46.23
2023-04-16T05:30:38.168Z,42.97
2023-04-16T05:33:04.904Z,49.27
2023-04-16T05:35:31.459Z,46.57
2023-04-16T05:37:57.865Z,49.60
2023-04-16T05:40:24.279Z,47.37
2023-04-16T05:42:50.900Z,44.37
2023-04-16T05:45:17.343Z,43.97
2023-04-16T05:47:44.080Z,41.23
2023-04-16T05:50:11.158Z,41.70
2023-04-16T05:52:38.271Z,40.37
2023-04-16T05:55:05.281Z,42.37
2023-04-16T05:57:31.788Z,36.77
2023-04-16T05:59:58.250Z,36.40
2023-04-16T06:02:24.802Z,36.83
2023-04-16T06:04:51.380Z,40.80
2023-04-16T06:07:17.879Z,38.77
2023-04-16T06:09:44.776Z,35.40
2023-04-16T06:12:11.735Z,38.50
2023-04-16T06:14:38.301Z,37.70
2023-04-16T06:17:04.970Z,39.10
2023-04-16T06:19:31.419Z,39.00
2023-04-16T06:21:57.943Z,36.47
2023-04-16T06:24:24.702Z,41.00
2023-04-16T06:26:51.273Z,40.07
2023-04-16T06:29:17.841Z,41.80
2023-04-16T06:31:44.802Z,43.97
2023-04-16T06:34:11.382Z,42.40
2023-04-16T06:36:37.966Z,36.77
2023-04-16T06:39:05.051Z,40.17
2023-04-16T06:41:31.661Z,37.63
2023-04-16T06:43:58.408Z,38.73
2023-04-16T06:46:25.136Z,35.80
2023-04-16T06:48:51.773Z,37.87
2023-04-16T06:51:18.332Z,34.80
2023-04-16T06:53:44.918Z,34.50
2023-04-16T06:56:11.472Z,33.77
2023-04-16T06:58:37.978Z,35.87
2023-04-16T07:01:04.903Z,31.73
2023-04-16T07:03:31.677Z,33.50
2023-04-16T07:05:58.607Z,32.43
2023-04-16T07:08:25.116Z,36.57
2023-04-16T07:10:53.799Z,38.80
2023-04-16T07:13:20.775Z,38.73
2023-04-16T07:15:47.843Z,43.20
2023-04-16T07:18:14.556Z,42.47
2023-04-16T07:20:41.139Z,44.87
2023-04-16T07:23:07.846Z,44.37
2023-04-16T07:25:34.446Z,42.67
2023-04-16T07:28:01.714Z,45.50
2023-04-16T07:30:33.967Z,43.93
2023-04-16T07:33:01.477Z,41.57
2023-04-16T07:35:28.319Z,40.47
2023-04-16T07:37:54.981Z,43.70
2023-04-16T07:40:21.763Z,42.87
2023-04-16T07:42:48.534Z,42.37
2023-04-16T07:45:16.756Z,41.00
2023-04-16T07:47:43.490Z,40.50
2023-04-16T07:50:10.362Z,40.07
2023-04-16T07:52:38.916Z,40.13
2023-04-16T07:55:05.874Z,38.53
2023-04-16T07:57:32.470Z,38.67
2023-04-16T07:59:59.167Z,39.97
2023-04-16T08:02:26.625Z,38.53
2023-04-16T08:04:53.374Z,37.30
2023-04-16T08:07:20.228Z,33.10
2023-04-16T08:09:47.435Z,37.40
2023-04-16T08:12:14.027Z,36.80
2023-04-16T08:14:41.464Z,37.80
2023-04-16T08:17:07.988Z,36.07
2023-04-16T08:19:34.634Z,39.93
2023-04-16T08:22:01.265Z,40.00
2023-04-16T08:24:27.917Z,37.20
2023-04-16T08:26:56.992Z,35.63
2023-04-16T08:29:26.852Z,35.60
2023-04-16T08:31:53.845Z,34.97
2023-04-16T08:34:20.838Z,34.27
2023-04-16T08:36:47.564Z,32.00
2023-04-16T08:39:14.196Z,33.07
2023-04-16T08:41:42.362Z,32.70
2023-04-16T08:44:09.565Z,32.67
2023-04-16T08:46:37.335Z,31.73
2023-04-16T08:49:07.634Z,32.90
2023-04-16T08:51:35.125Z,31.47
2023-04-16T08:54:06.448Z,31.20
2023-04-16T08:56:36.410Z,31.20
2023-04-16T08:59:05.377Z,32.50
2023-04-16T09:01:35.858Z,31.00
2023-04-16T09:04:03.016Z,31.50
2023-04-16T09:06:29.827Z,29.90
2023-04-16T09:08:58.120Z,32.50
2023-04-16T09:11:25.605Z,28.63
2023-04-16T09:13:52.289Z,28.57
2023-04-16T09:16:20.727Z,27.70
2023-04-16T09:18:47.882Z,29.30
2023-04-16T09:21:15.953Z,31.10
2023-04-16T09:23:43.409Z,30.97
2023-04-16T09:26:09.990Z,33.33
2023-04-16T09:28:43.651Z,32.37
2023-04-16T09:31:17.450Z,34.67
2023-04-16T09:33:44.815Z,35.63
2023-04-16T09:36:11.430Z,33.70
2023-04-16T09:38:53.404Z,30.70
2023-04-16T09:41:28.405Z,29.30
2023-04-16T09:43:56.395Z,32.93
2023-04-16T09:46:23.734Z,32.10
2023-04-16T09:48:51.138Z,28.83
2023-04-16T09:51:17.769Z,29.83
2023-04-16T09:53:44.378Z,31.50
2023-04-16T09:56:11.881Z,30.60
2023-04-16T09:58:38.713Z,30.13
2023-04-16T10:01:06.919Z,31.13
2023-04-16T10:03:34.513Z,27.57
2023-04-16T10:06:06.906Z,30.33
2023-04-16T10:08:33.478Z,28.73
2023-04-16T10:11:00.339Z,29.00
2023-04-16T10:13:31.223Z,29.33
2023-04-16T10:15:58.705Z,29.10
2023-04-16T10:18:25.364Z,27.47
2023-04-16T10:20:51.958Z,30.10
2023-04-16T10:23:19.806Z,29.70
2023-04-16T10:25:47.674Z,31.93
2023-04-16T10:28:14.927Z,32.50
2023-04-16T10:30:42.371Z,34.37
2023-04-16T10:33:09.580Z,31.73
2023-04-16T10:35:39.266Z,34.87
2023-04-16T10:38:25.610Z,32.77
2023-04-16T10:41:18.690Z,33.77
2023-04-16T10:43:49.757Z,32.43
2023-04-16T10:46:19.524Z,36.57
2023-04-16T10:48:50.458Z,35.93
2023-04-16T10:51:24.446Z,33.67
2023-04-16T10:53:50.972Z,35.70
2023-04-16T10:56:24.775Z,32.33
2023-04-16T10:58:52.884Z,32.17
2023-04-16T11:01:26.556Z,30.30
2023-04-16T11:03:53.452Z,27.93
2023-04-16T11:06:27.014Z,28.50
2023-04-16T11:08:55.303Z,25.73
2023-04-16T11:11:22.554Z,26.53
2023-04-16T11:13:49.159Z,26.70
2023-04-16T11:16:16.384Z,26.17
2023-04-16T11:18:50.765Z,27.10
2023-04-16T11:21:18.369Z,26.43
2023-04-16T11:23:52.005Z,27.57
2023-04-16T11:26:26.011Z,28.53
2023-04-16T11:28:53.753Z,25.77
2023-04-16T11:31:20.673Z,25.13
2023-04-16T11:33:47.263Z,24.07
2023-04-16T11:36:13.903Z,24.53
2023-04-16T11:38:43.803Z,24.40
2023-04-16T11:41:11.275Z,23.27
2023-04-16T11:43:38.903Z,23.03
2023-04-16T11:46:20.021Z,23.33
2023-04-16T11:48:51.333Z,24.43
2023-04-16T11:51:18.489Z,22.57
2023-04-16T11:53:46.016Z,23.47
2023-04-16T11:56:12.593Z,22.97
2023-04-16T11:58:39.109Z,25.30
2023-04-16T12:01:10.177Z,26.27
2023-04-16T12:03:46.957Z,25.80
2023-04-16T12:06:14.072Z,28.67
2023-04-16T12:08:40.933Z,29.10
2023-04-16T12:11:07.628Z,24.60
2023-04-16T12:13:40.214Z,22.23
2023-04-16T12:16:16.635Z,21.00
2023-04-16T12:18:58.728Z,19.57
2023-04-16T12:21:25.282Z,19.27
2023-04-16T12:23:53.695Z,19.93
2023-04-16T12:26:20.230Z,19.57
2023-04-16T12:28:46.766Z,19.80
2023-04-16T12:31:14.540Z,19.20
2023-04-16T12:33:42.503Z,21.33
2023-04-16T12:36:18.960Z,21.10
2023-04-16T12:38:45.890Z,19.93
2023-04-16T12:41:12.452Z,20.50
2023-04-16T12:43:39.026Z,20.40
2023-04-16T12:46:06.812Z,21.27
2023-04-16T12:48:34.126Z,21.97
2023-04-16T12:51:00.708Z,21.17
2023-04-16T12:53:27.410Z,21.13
2023-04-16T12:55:54.246Z,19.07
2023-04-16T12:58:20.767Z,20.60
2023-04-16T13:00:47.484Z,20.87
2023-04-16T13:03:14.269Z,22.03
2023-04-16T13:05:40.942Z,21.70
2023-04-16T13:08:07.794Z,21.77
2023-04-16T13:10:35.136Z,21.17
2023-04-16T13:13:01.716Z,20.87
2023-04-16T13:15:28.850Z,24.03
2023-04-16T13:17:55.462Z,25.30
2023-04-16T13:20:24.428Z,26.83
2023-04-16T13:22:51.433Z,26.93
2023-04-16T13:25:18.376Z,27.80
2023-04-16T13:27:44.938Z,27.27
2023-04-16T13:30:11.691Z,27.40
2023-04-16T13:32:38.364Z,25.10
2023-04-16T13:35:05.216Z,25.70
2023-04-16T13:37:31.844Z,26.07
2023-04-16T13:39:58.326Z,24.67
2023-04-16T13:42:24.935Z,28.67
2023-04-16T13:44:54.254Z,28.20
2023-04-16T13:47:20.966Z,27.50
2023-04-16T13:49:47.628Z,24.00
2023-04-16T13:52:14.213Z,30.57
2023-04-16T13:54:41.508Z,28.60
2023-04-16T13:57:19.797Z,28.57
2023-04-16T13:59:46.379Z,28.87
2023-04-16T14:02:13.139Z,30.70
2023-04-16T14:04:39.782Z,31.10
2023-04-16T14:07:06.646Z,29.83
2023-04-16T14:09:33.337Z,25.93
2023-04-16T14:12:00.004Z,29.00
2023-04-16T14:14:26.847Z,31.07
2023-04-16T14:16:57.706Z,29.77
2023-04-16T14:19:24.326Z,26.33
2023-04-16T14:21:51.117Z,30.67
2023-04-16T14:24:17.872Z,30.63
2023-04-16T14:26:44.599Z,31.50
2023-04-16T14:29:11.261Z,30.33
2023-04-16T14:31:38.279Z,31.80
2023-04-16T14:34:04.856Z,29.93
2023-04-16T14:36:31.601Z,28.10
2023-04-16T14:38:58.214Z,29.43
2023-04-16T14:41:25.255Z,30.40
2023-04-16T14:43:51.970Z,28.03
2023-04-16T14:46:19.250Z,30.50
2023-04-16T14:48:46.317Z,35.30
2023-04-16T14:51:12.945Z,33.47
2023-04-16T14:53:39.633Z,33.90
2023-04-16T14:56:06.367Z,28.90
2023-04-16T14:58:32.954Z,29.63
2023-04-16T15:00:59.590Z,31.20
2023-04-16T15:03:26.737Z,30.37
2023-04-16T15:05:56.333Z,30.97
2023-04-16T15:08:23.245Z,35.87
2023-04-16T15:10:50.548Z,34.00
2023-04-16T15:13:17.400Z,34.30
2023-04-16T15:15:44.247Z,32.97
2023-04-16T15:18:10.836Z,36.23
2023-04-16T15:20:37.485Z,36.70
2023-04-16T15:23:04.051Z,39.37
2023-04-16T15:25:30.849Z,38.10
2023-04-16T15:27:57.674Z,38.00
2023-04-16T15:30:24.327Z,40.73
2023-04-16T15:32:50.869Z,36.00
2023-04-16T15:35:17.502Z,38.80
2023-04-16T15:37:44.408Z,37.20
2023-04-16T15:40:11.261Z,38.13
2023-04-16T15:42:38.806Z,40.07
2023-04-16T15:45:05.698Z,40.40
2023-04-16T15:47:32.434Z,42.40
2023-04-16T15:49:59.110Z,38.53
2023-04-16T15:52:26.082Z,37.50
2023-04-16T15:54:52.775Z,39.30
2023-04-16T15:57:19.504Z,40.40
2023-04-16T15:59:53.057Z,43.03
2023-04-16T16:02:31.785Z,46.50
2023-04-16T16:05:00.301Z,43.40
2023-04-16T16:07:29.329Z,48.07
2023-04-16T16:09:56.414Z,40.70
2023-04-16T16:12:23.444Z,44.83
2023-04-16T16:14:50.248Z,45.43
2023-04-16T16:17:17.063Z,52.03
2023-04-16T16:19:45.864Z,47.80
2023-04-16T16:22:13.134Z,49.90
2023-04-16T16:24:39.864Z,48.47
2023-04-16T16:27:06.982Z,48.57
2023-04-16T16:29:33.665Z,47.50
2023-04-16T16:32:00.404Z,48.43
2023-04-16T16:34:27.156Z,51.20
2023-04-16T16:36:53.786Z,50.13
2023-04-16T16:39:24.402Z,49.00
2023-04-16T16:41:52.764Z,49.30
2023-04-16T16:44:19.842Z,50.57
2023-04-16T16:46:47.544Z,46.43
2023-04-16T16:49:14.549Z,43.73
2023-04-16T16:51:41.304Z,43.07
2023-04-16T16:54:07.932Z,45.50
2023-04-16T16:56:34.588Z,44.20
2023-04-16T16:59:02.995Z,40.97
2023-04-16T17:01:31.156Z,45.27
2023-04-16T17:03:58.083Z,42.40
2023-04-16T17:06:25.193Z,37.13
2023-04-16T17:08:52.127Z,44.27
2023-04-16T17:11:19.271Z,56.57
2023-04-16T17:13:46.442Z,46.50
2023-04-16T17:16:15.345Z,48.37
2023-04-16T17:18:43.256Z,38.50
2023-04-16T17:21:09.866Z,38.60
2023-04-16T17:23:36.519Z,38.07
2023-04-16T17:26:03.367Z,37.90
2023-04-16T17:28:30.174Z,40.07
2023-04-16T17:30:57.018Z,37.70
2023-04-16T17:33:23.712Z,37.27
2023-04-16T17:35:50.459Z,36.87
2023-04-16T17:38:17.257Z,38.80
2023-04-16T17:40:43.951Z,38.33
2023-04-16T17:43:10.842Z,39.37
2023-04-16T17:45:37.546Z,41.90
2023-04-16T17:48:04.762Z,36.33
2023-04-16T17:50:31.658Z,37.90
2023-04-16T17:53:03.517Z,38.27
2023-04-16T17:55:32.858Z,39.70
2023-04-16T17:58:00.622Z,41.30
2023-04-16T18:00:27.823Z,33.17
2023-04-16T18:03:00.664Z,37.20
2023-04-16T18:05:27.572Z,36.70
2023-04-16T18:07:55.625Z,44.10
2023-04-16T18:10:22.694Z,93.50
2023-04-16T18:12:49.408Z,63.53
2023-04-16T18:15:17.286Z,60.13
2023-04-16T18:17:43.865Z,63.40
2023-04-16T18:20:12.697Z,65.47
2023-04-16T18:22:39.325Z,48.40
2023-04-16T18:25:06.777Z,49.87
2023-04-16T18:27:33.789Z,55.53
2023-04-16T18:30:00.785Z,47.77
2023-04-16T18:32:30.846Z,38.60
2023-04-16T18:34:57.988Z,45.23
2023-04-16T18:37:24.746Z,40.77
2023-04-16T18:39:51.413Z,40.53
2023-04-16T18:42:18.231Z,38.30
2023-04-16T18:44:51.003Z,38.27
2023-04-16T18:47:18.826Z,38.03
2023-04-16T18:49:45.495Z,40.50
2023-04-16T18:52:12.120Z,47.80
2023-04-16T18:54:38.871Z,42.57
2023-04-16T18:57:11.991Z,40.37
2023-04-16T18:59:38.699Z,38.17
2023-04-16T19:02:05.387Z,40.17
2023-04-16T19:04:32.148Z,38.97
2023-04-16T19:06:59.005Z,40.43
2023-04-16T19:09:27.076Z,37.10
2023-04-16T19:11:53.780Z,37.80
2023-04-16T19:14:24.535Z,37.87
2023-04-16T19:16:51.172Z,40.57
2023-04-16T19:19:17.951Z,38.10
2023-04-16T19:21:44.616Z,41.50
2023-04-16T19:24:11.478Z,36.07
2023-04-16T19:26:38.058Z,35.33
2023-04-16T19:29:04.718Z,37.47
2023-04-16T19:31:31.327Z,35.20
2023-04-16T19:33:57.973Z,33.47
2023-04-16T19:36:26.502Z,36.70
2023-04-16T19:38:53.154Z,37.40
2023-04-16T19:41:19.811Z,35.60
2023-04-16T19:43:46.629Z,37.67
2023-04-16T19:46:14.119Z,37.73
2023-04-16T19:48:41.271Z,38.43
2023-04-16T19:51:07.895Z,36.03
2023-04-16T19:53:35.014Z,35.90
2023-04-16T19:56:01.718Z,34.40
2023-04-16T19:58:28.319Z,38.17
2023-04-16T20:00:55.717Z,38.70
2023-04-16T20:03:22.422Z,40.47
2023-04-16T20:05:49.950Z,44.10
2023-04-16T20:08:16.572Z,45.17
2023-04-16T20:10:43.280Z,41.70
2023-04-16T20:13:12.052Z,43.60
2023-04-16T20:15:38.795Z,44.30
2023-04-16T20:18:06.303Z,44.17
2023-04-16T20:20:34.691Z,45.47
2023-04-16T20:23:01.306Z,41.97
2023-04-16T20:25:29.366Z,47.80
2023-04-16T20:27:56.315Z,45.83
2023-04-16T20:30:28.739Z,48.60
2023-04-16T20:32:56.513Z,44.27
2023-04-16T20:35:23.582Z,44.00
2023-04-16T20:37:50.351Z,41.80
2023-04-16T20:40:17.082Z,42.30
2023-04-16T20:42:46.608Z,42.37
2023-04-16T20:45:13.313Z,42.67
2023-04-16T20:47:53.642Z,39.10
2023-04-16T20:50:25.139Z,37.50
2023-04-16T20:53:44.554Z,39.97
2023-04-16T20:56:17.104Z,36.80
2023-04-16T20:58:44.400Z,39.10
2023-04-16T21:01:12.524Z,42.17
2023-04-16T21:03:43.027Z,41.33
2023-04-16T21:06:20.701Z,40.20
2023-04-16T21:08:55.608Z,42.47
2023-04-16T21:11:23.827Z,43.97
2023-04-16T21:13:50.565Z,43.10
2023-04-16T21:16:17.340Z,44.83
2023-04-16T21:18:44.211Z,43.73
2023-04-16T21:21:10.921Z,41.03
2023-04-16T21:23:37.414Z,42.10
2023-04-16T21:26:04.098Z,42.87
2023-04-16T21:28:30.626Z,39.40
2023-04-16T21:30:57.358Z,39.70
2023-04-16T21:33:24.064Z,38.30
2023-04-16T21:35:51.399Z,37.57
2023-04-16T21:38:18.100Z,39.23
2023-04-16T21:40:45.545Z,37.70
2023-04-16T21:43:12.379Z,36.77
2023-04-16T21:45:39.762Z,38.40
2023-04-16T21:48:06.608Z,37.00
2023-04-16T21:50:33.652Z,39.73
2023-04-16T21:53:00.441Z,39.43
2023-04-16T21:55:27.163Z,37.57
2023-04-16T21:57:53.755Z,38.10
2023-04-16T22:00:21.129Z,39.27
2023-04-16T22:02:47.832Z,37.17
2023-04-16T22:05:14.465Z,40.17
2023-04-16T22:07:41.891Z,38.93
2023-04-16T22:10:08.950Z,36.87
2023-04-16T22:12:39.533Z,37.07
2023-04-16T22:15:07.243Z,37.40
2023-04-16T22:17:36.936Z,39.67
2023-04-16T22:20:08.965Z,39.77
2023-04-16T22:22:35.806Z,41.27
2023-04-16T22:25:03.411Z,40.10
2023-04-16T22:27:30.406Z,41.83
2023-04-16T22:29:57.025Z,42.07
2023-04-16T22:32:23.917Z,43.23
2023-04-16T22:34:50.602Z,41.60
2023-04-16T22:37:17.173Z,43.77
2023-04-16T22:39:45.367Z,45.50
2023-04-16T22:42:12.097Z,46.60
2023-04-16T22:44:38.632Z,45.17
2023-04-16T22:47:05.375Z,44.00
2023-04-16T22:49:35.006Z,48.00
2023-04-16T22:52:01.763Z,46.53
2023-04-16T22:54:31.805Z,45.73
2023-04-16T22:56:58.660Z,47.77
2023-04-16T22:59:25.321Z,49.13
2023-04-16T23:01:52.140Z,47.53
2023-04-16T23:04:18.823Z,49.83
2023-04-16T23:06:46.581Z,50.03
2023-04-16T23:09:13.967Z,50.00
2023-04-16T23:11:40.938Z,49.83
2023-04-16T23:14:08.349Z,49.87
2023-04-16T23:16:35.222Z,52.83
2023-04-16T23:19:01.773Z,51.70
2023-04-16T23:21:28.566Z,50.70
2023-04-16T23:23:56.770Z,51.37
2023-04-16T23:26:23.657Z,51.57
2023-04-16T23:28:50.264Z,51.03
2023-04-16T23:31:16.773Z,51.57
2023-04-16T23:33:43.296Z,52.97
2023-04-16T23:36:10.126Z,53.97
2023-04-16T23:38:36.667Z,53.40
2023-04-16T23:41:03.228Z,51.33
2023-04-16T23:43:29.944Z,53.50
2023-04-16T23:45:56.485Z,51.07
2023-04-16T23:48:22.966Z,50.60
2023-04-16T23:50:49.508Z,54.13
2023-04-16T23:53:16.045Z,52.63
2023-04-16T23:55:42.746Z,56.53
2023-04-16T23:58:09.158Z,54.80
